sensor_id;sensor_type;location;lat;lon;timestamp;P1;durP1;ratioP1;P2;durP2;ratioP2
35326;SDS011;21436;52.348;20.928;2023-06-14T00:00:11;14.32;;;10.52;;
35326;SDS011;21436;52.348;20.928;2023-06-14T00:03:00;18.05;;;11.40;;
35326;SDS011;21436;52.348;20.928;2023-06-14T00:05:29;16.48;;;10.70;;
35326;SDS011;21436;52.348;20.928;2023-06-14T00:07:57;17.90;;;11.50;;
35326;SDS011;21436;52.348;20.928;2023-06-14T00:10:28;15.93;;;10.43;;
35326;SDS011;21436;52.348;20.928;2023-06-14T00:12:58;20.45;;;11.65;;
35326;SDS011;21436;52.348;20.928;2023-06-14T00:15:27;15.38;;;11.27;;
35326;SDS011;21436;52.348;20.928;2023-06-14T00:17:55;18.58;;;11.07;;
35326;SDS011;21436;52.348;20.928;2023-06-14T00:20:24;15.27;;;10.38;;
35326;SDS011;21436;52.348;20.928;2023-06-14T00:22:53;15.68;;;11.45;;
35326;SDS011;21436;52.348;20.928;2023-06-14T00:25:25;18.00;;;10.88;;
35326;SDS011;21436;52.348;20.928;2023-06-14T00:27:56;15.88;;;10.75;;
35326;SDS011;21436;52.348;20.928;2023-06-14T00:30:25;20.40;;;11.35;;
35326;SDS011;21436;52.348;20.928;2023-06-14T00:32:55;17.65;;;10.75;;
35326;SDS011;21436;52.348;20.928;2023-06-14T00:35:25;16.13;;;10.30;;
35326;SDS011;21436;52.348;20.928;2023-06-14T00:37:53;13.88;;;9.75;;
35326;SDS011;21436;52.348;20.928;2023-06-14T00:40:22;16.25;;;10.82;;
35326;SDS011;21436;52.348;20.928;2023-06-14T00:42:50;16.88;;;11.40;;
35326;SDS011;21436;52.348;20.928;2023-06-14T00:45:18;17.00;;;10.85;;
35326;SDS011;21436;52.348;20.928;2023-06-14T00:47:46;18.65;;;10.70;;
35326;SDS011;21436;52.348;20.928;2023-06-14T00:50:16;18.35;;;10.18;;
35326;SDS011;21436;52.348;20.928;2023-06-14T00:52:44;18.00;;;11.45;;
35326;SDS011;21436;52.348;20.928;2023-06-14T00:55:12;17.58;;;11.25;;
35326;SDS011;21436;52.348;20.928;2023-06-14T00:57:40;13.68;;;10.48;;
35326;SDS011;21436;52.348;20.928;2023-06-14T01:00:09;17.33;;;11.02;;
35326;SDS011;21436;52.348;20.928;2023-06-14T01:02:38;19.38;;;11.32;;
35326;SDS011;21436;52.348;20.928;2023-06-14T01:05:09;15.73;;;11.45;;
35326;SDS011;21436;52.348;20.928;2023-06-14T01:13:06;18.17;;;12.00;;
35326;SDS011;21436;52.348;20.928;2023-06-14T01:15:54;22.80;;;11.45;;
35326;SDS011;21436;52.348;20.928;2023-06-14T01:18:23;22.00;;;12.77;;
35326;SDS011;21436;52.348;20.928;2023-06-14T01:20:53;16.75;;;11.77;;
35326;SDS011;21436;52.348;20.928;2023-06-14T01:23:24;17.20;;;11.52;;
35326;SDS011;21436;52.348;20.928;2023-06-14T01:26:01;18.30;;;12.43;;
35326;SDS011;21436;52.348;20.928;2023-06-14T01:28:33;21.25;;;12.02;;
35326;SDS011;21436;52.348;20.928;2023-06-14T01:31:03;18.58;;;12.25;;
35326;SDS011;21436;52.348;20.928;2023-06-14T01:33:33;17.23;;;11.68;;
35326;SDS011;21436;52.348;20.928;2023-06-14T01:36:01;16.48;;;11.93;;
35326;SDS011;21436;52.348;20.928;2023-06-14T01:38:30;20.75;;;12.10;;
35326;SDS011;21436;52.348;20.928;2023-06-14T01:40:59;19.30;;;12.38;;
35326;SDS011;21436;52.348;20.928;2023-06-14T01:43:27;16.50;;;12.57;;
35326;SDS011;21436;52.348;20.928;2023-06-14T01:45:58;19.65;;;11.75;;
35326;SDS011;21436;52.348;20.928;2023-06-14T01:48:27;22.90;;;12.40;;
35326;SDS011;21436;52.348;20.928;2023-06-14T01:50:55;18.63;;;11.90;;
35326;SDS011;21436;52.348;20.928;2023-06-14T01:53:22;23.90;;;11.80;;
35326;SDS011;21436;52.348;20.928;2023-06-14T01:55:51;18.63;;;12.02;;
35326;SDS011;21436;52.348;20.928;2023-06-14T01:58:22;17.92;;;11.50;;
35326;SDS011;21436;52.348;20.928;2023-06-14T02:00:51;20.75;;;12.68;;
35326;SDS011;21436;52.348;20.928;2023-06-14T02:03:22;20.55;;;12.57;;
35326;SDS011;21436;52.348;20.928;2023-06-14T02:05:52;18.48;;;12.43;;
35326;SDS011;21436;52.348;20.928;2023-06-14T02:08:19;23.27;;;13.52;;
35326;SDS011;21436;52.348;20.928;2023-06-14T02:10:47;16.27;;;12.35;;
35326;SDS011;21436;52.348;20.928;2023-06-14T02:13:15;22.25;;;13.98;;
35326;SDS011;21436;52.348;20.928;2023-06-14T02:15:43;20.48;;;13.98;;
35326;SDS011;21436;52.348;20.928;2023-06-14T02:18:13;21.83;;;13.93;;
35326;SDS011;21436;52.348;20.928;2023-06-14T02:20:41;17.70;;;13.15;;
35326;SDS011;21436;52.348;20.928;2023-06-14T02:23:09;19.30;;;13.30;;
35326;SDS011;21436;52.348;20.928;2023-06-14T02:25:37;22.85;;;13.65;;
35326;SDS011;21436;52.348;20.928;2023-06-14T02:28:07;21.27;;;12.90;;
35326;SDS011;21436;52.348;20.928;2023-06-14T02:30:35;26.48;;;14.75;;
35326;SDS011;21436;52.348;20.928;2023-06-14T02:33:03;24.58;;;13.57;;
35326;SDS011;21436;52.348;20.928;2023-06-14T02:35:32;20.80;;;13.02;;
35326;SDS011;21436;52.348;20.928;2023-06-14T02:38:01;25.00;;;13.18;;
35326;SDS011;21436;52.348;20.928;2023-06-14T02:40:30;18.52;;;12.30;;
35326;SDS011;21436;52.348;20.928;2023-06-14T02:42:58;22.73;;;13.25;;
35326;SDS011;21436;52.348;20.928;2023-06-14T02:45:26;23.05;;;14.15;;
35326;SDS011;21436;52.348;20.928;2023-06-14T02:47:53;19.85;;;13.27;;
35326;SDS011;21436;52.348;20.928;2023-06-14T02:50:23;18.42;;;13.55;;
35326;SDS011;21436;52.348;20.928;2023-06-14T02:52:51;22.10;;;15.10;;
35326;SDS011;21436;52.348;20.928;2023-06-14T02:55:20;24.20;;;14.90;;
35326;SDS011;21436;52.348;20.928;2023-06-14T02:57:53;23.80;;;16.10;;
35326;SDS011;21436;52.348;20.928;2023-06-14T03:00:22;26.23;;;14.93;;
35326;SDS011;21436;52.348;20.928;2023-06-14T03:02:50;22.65;;;14.90;;
35326;SDS011;21436;52.348;20.928;2023-06-14T03:05:19;25.08;;;15.40;;
35326;SDS011;21436;52.348;20.928;2023-06-14T03:07:48;23.08;;;15.18;;
35326;SDS011;21436;52.348;20.928;2023-06-14T03:10:19;22.83;;;14.20;;
35326;SDS011;21436;52.348;20.928;2023-06-14T03:12:50;20.70;;;14.85;;
35326;SDS011;21436;52.348;20.928;2023-06-14T03:15:21;26.80;;;15.48;;
35326;SDS011;21436;52.348;20.928;2023-06-14T03:17:52;22.92;;;15.52;;
35326;SDS011;21436;52.348;20.928;2023-06-14T03:20:22;24.52;;;15.35;;
35326;SDS011;21436;52.348;20.928;2023-06-14T03:22:53;23.88;;;15.50;;
35326;SDS011;21436;52.348;20.928;2023-06-14T03:25:22;26.50;;;16.20;;
35326;SDS011;21436;52.348;20.928;2023-06-14T03:27:51;23.83;;;16.63;;
35326;SDS011;21436;52.348;20.928;2023-06-14T03:30:20;22.35;;;15.88;;
35326;SDS011;21436;52.348;20.928;2023-06-14T03:32:51;24.77;;;17.25;;
35326;SDS011;21436;52.348;20.928;2023-06-14T03:35:26;29.63;;;16.13;;
35326;SDS011;21436;52.348;20.928;2023-06-14T03:37:55;27.05;;;15.63;;
35326;SDS011;21436;52.348;20.928;2023-06-14T03:40:24;24.52;;;14.88;;
35326;SDS011;21436;52.348;20.928;2023-06-14T03:43:00;20.58;;;14.02;;
35326;SDS011;21436;52.348;20.928;2023-06-14T03:45:28;22.13;;;14.63;;
35326;SDS011;21436;52.348;20.928;2023-06-14T03:47:57;25.52;;;15.35;;
35326;SDS011;21436;52.348;20.928;2023-06-14T03:50:27;22.52;;;15.75;;
35326;SDS011;21436;52.348;20.928;2023-06-14T03:52:55;21.83;;;15.57;;
35326;SDS011;21436;52.348;20.928;2023-06-14T03:55:24;22.75;;;15.00;;
35326;SDS011;21436;52.348;20.928;2023-06-14T03:57:55;20.58;;;16.10;;
35326;SDS011;21436;52.348;20.928;2023-06-14T04:00:23;19.02;;;15.05;;
35326;SDS011;21436;52.348;20.928;2023-06-14T04:02:51;20.15;;;14.93;;
35326;SDS011;21436;52.348;20.928;2023-06-14T04:05:20;22.90;;;15.07;;
35326;SDS011;21436;52.348;20.928;2023-06-14T04:07:50;26.23;;;14.48;;
35326;SDS011;21436;52.348;20.928;2023-06-14T04:10:18;22.80;;;14.27;;
35326;SDS011;21436;52.348;20.928;2023-06-14T04:12:48;20.50;;;13.48;;
35326;SDS011;21436;52.348;20.928;2023-06-14T04:15:17;21.42;;;14.20;;
35326;SDS011;21436;52.348;20.928;2023-06-14T04:17:49;19.27;;;13.60;;
35326;SDS011;21436;52.348;20.928;2023-06-14T04:20:20;24.33;;;13.48;;
35326;SDS011;21436;52.348;20.928;2023-06-14T04:22:49;21.08;;;13.20;;
35326;SDS011;21436;52.348;20.928;2023-06-14T04:25:17;18.90;;;13.60;;
35326;SDS011;21436;52.348;20.928;2023-06-14T04:27:50;18.58;;;12.80;;
35326;SDS011;21436;52.348;20.928;2023-06-14T04:30:21;21.27;;;13.32;;
35326;SDS011;21436;52.348;20.928;2023-06-14T04:35:24;18.23;;;12.32;;
35326;SDS011;21436;52.348;20.928;2023-06-14T04:37:54;17.10;;;12.05;;
35326;SDS011;21436;52.348;20.928;2023-06-14T04:40:23;16.20;;;10.40;;
35326;SDS011;21436;52.348;20.928;2023-06-14T04:42:50;19.90;;;10.95;;
35326;SDS011;21436;52.348;20.928;2023-06-14T04:45:20;16.98;;;11.20;;
35326;SDS011;21436;52.348;20.928;2023-06-14T04:47:50;16.13;;;11.07;;
35326;SDS011;21436;52.348;20.928;2023-06-14T04:50:20;16.52;;;11.70;;
35326;SDS011;21436;52.348;20.928;2023-06-14T04:52:47;20.02;;;10.57;;
35326;SDS011;21436;52.348;20.928;2023-06-14T04:55:19;19.45;;;11.82;;
35326;SDS011;21436;52.348;20.928;2023-06-14T04:57:47;18.15;;;11.60;;
35326;SDS011;21436;52.348;20.928;2023-06-14T05:00:15;19.23;;;10.88;;
35326;SDS011;21436;52.348;20.928;2023-06-14T05:02:43;17.63;;;11.43;;
35326;SDS011;21436;52.348;20.928;2023-06-14T05:05:12;17.23;;;11.25;;
35326;SDS011;21436;52.348;20.928;2023-06-14T05:07:41;14.93;;;10.55;;
35326;SDS011;21436;52.348;20.928;2023-06-14T05:10:10;16.17;;;11.07;;
35326;SDS011;21436;52.348;20.928;2023-06-14T05:12:38;14.07;;;10.90;;
35326;SDS011;21436;52.348;20.928;2023-06-14T05:15:08;17.90;;;12.27;;
35326;SDS011;21436;52.348;20.928;2023-06-14T05:17:39;16.77;;;11.18;;
35326;SDS011;21436;52.348;20.928;2023-06-14T05:20:08;15.93;;;12.27;;
35326;SDS011;21436;52.348;20.928;2023-06-14T05:22:37;15.35;;;11.65;;
35326;SDS011;21436;52.348;20.928;2023-06-14T05:25:06;15.07;;;11.18;;
35326;SDS011;21436;52.348;20.928;2023-06-14T05:27:34;15.48;;;11.85;;
35326;SDS011;21436;52.348;20.928;2023-06-14T05:30:04;16.38;;;11.50;;
35326;SDS011;21436;52.348;20.928;2023-06-14T05:32:33;16.13;;;11.57;;
35326;SDS011;21436;52.348;20.928;2023-06-14T05:35:02;16.40;;;11.52;;
35326;SDS011;21436;52.348;20.928;2023-06-14T05:37:30;18.88;;;11.88;;
35326;SDS011;21436;52.348;20.928;2023-06-14T05:39:58;15.75;;;11.65;;
35326;SDS011;21436;52.348;20.928;2023-06-14T05:42:27;18.85;;;11.38;;
35326;SDS011;21436;52.348;20.928;2023-06-14T05:44:55;16.95;;;11.98;;
35326;SDS011;21436;52.348;20.928;2023-06-14T05:47:23;16.60;;;11.63;;
35326;SDS011;21436;52.348;20.928;2023-06-14T05:49:51;18.77;;;12.52;;
35326;SDS011;21436;52.348;20.928;2023-06-14T05:52:18;18.35;;;12.60;;
35326;SDS011;21436;52.348;20.928;2023-06-14T05:54:46;18.17;;;11.85;;
35326;SDS011;21436;52.348;20.928;2023-06-14T05:57:14;19.50;;;12.63;;
35326;SDS011;21436;52.348;20.928;2023-06-14T05:59:43;17.38;;;12.32;;
35326;SDS011;21436;52.348;20.928;2023-06-14T06:02:11;19.77;;;13.77;;
35326;SDS011;21436;52.348;20.928;2023-06-14T06:04:39;17.42;;;11.85;;
35326;SDS011;21436;52.348;20.928;2023-06-14T06:07:07;19.50;;;13.25;;
35326;SDS011;21436;52.348;20.928;2023-06-14T06:09:36;19.67;;;12.50;;
35326;SDS011;21436;52.348;20.928;2023-06-14T06:12:05;19.00;;;13.13;;
35326;SDS011;21436;52.348;20.928;2023-06-14T06:14:34;18.73;;;12.13;;
35326;SDS011;21436;52.348;20.928;2023-06-14T06:17:03;17.20;;;12.45;;
35326;SDS011;21436;52.348;20.928;2023-06-14T06:19:31;19.88;;;13.05;;
35326;SDS011;21436;52.348;20.928;2023-06-14T06:21:59;21.13;;;12.48;;
35326;SDS011;21436;52.348;20.928;2023-06-14T06:24:28;21.40;;;12.10;;
35326;SDS011;21436;52.348;20.928;2023-06-14T06:26:55;17.23;;;12.07;;
35326;SDS011;21436;52.348;20.928;2023-06-14T06:29:24;16.25;;;12.60;;
35326;SDS011;21436;52.348;20.928;2023-06-14T06:31:51;18.25;;;12.27;;
35326;SDS011;21436;52.348;20.928;2023-06-14T06:34:21;16.67;;;11.65;;
35326;SDS011;21436;52.348;20.928;2023-06-14T06:36:49;20.80;;;12.23;;
35326;SDS011;21436;52.348;20.928;2023-06-14T06:39:17;20.13;;;12.27;;
35326;SDS011;21436;52.348;20.928;2023-06-14T06:41:45;15.52;;;12.02;;
35326;SDS011;21436;52.348;20.928;2023-06-14T06:46:49;17.25;;;12.48;;
35326;SDS011;21436;52.348;20.928;2023-06-14T06:49:17;19.00;;;13.40;;
35326;SDS011;21436;52.348;20.928;2023-06-14T06:51:53;20.77;;;13.45;;
35326;SDS011;21436;52.348;20.928;2023-06-14T06:54:27;14.77;;;12.45;;
35326;SDS011;21436;52.348;20.928;2023-06-14T06:56:55;19.15;;;13.05;;
35326;SDS011;21436;52.348;20.928;2023-06-14T06:59:24;16.23;;;11.63;;
35326;SDS011;21436;52.348;20.928;2023-06-14T07:01:52;16.70;;;12.43;;
35326;SDS011;21436;52.348;20.928;2023-06-14T07:04:21;17.30;;;12.60;;
35326;SDS011;21436;52.348;20.928;2023-06-14T07:06:49;16.92;;;12.32;;
35326;SDS011;21436;52.348;20.928;2023-06-14T07:09:17;17.55;;;12.95;;
35326;SDS011;21436;52.348;20.928;2023-06-14T07:11:48;17.15;;;12.48;;
35326;SDS011;21436;52.348;20.928;2023-06-14T07:14:16;21.05;;;12.55;;
35326;SDS011;21436;52.348;20.928;2023-06-14T07:16:44;14.77;;;10.98;;
35326;SDS011;21436;52.348;20.928;2023-06-14T07:19:14;17.45;;;12.05;;
35326;SDS011;21436;52.348;20.928;2023-06-14T07:21:42;18.13;;;11.85;;
35326;SDS011;21436;52.348;20.928;2023-06-14T07:24:11;13.95;;;11.93;;
35326;SDS011;21436;52.348;20.928;2023-06-14T07:26:39;15.40;;;12.55;;
35326;SDS011;21436;52.348;20.928;2023-06-14T07:29:07;23.30;;;13.27;;
35326;SDS011;21436;52.348;20.928;2023-06-14T07:31:35;18.83;;;11.55;;
35326;SDS011;21436;52.348;20.928;2023-06-14T07:34:03;15.88;;;12.35;;
35326;SDS011;21436;52.348;20.928;2023-06-14T07:36:31;18.08;;;12.85;;
35326;SDS011;21436;52.348;20.928;2023-06-14T07:38:59;16.95;;;11.20;;
35326;SDS011;21436;52.348;20.928;2023-06-14T07:41:28;17.15;;;11.27;;
35326;SDS011;21436;52.348;20.928;2023-06-14T07:43:56;18.00;;;11.95;;
35326;SDS011;21436;52.348;20.928;2023-06-14T07:46:24;19.23;;;11.13;;
35326;SDS011;21436;52.348;20.928;2023-06-14T07:48:52;15.15;;;11.38;;
35326;SDS011;21436;52.348;20.928;2023-06-14T07:51:21;15.05;;;10.35;;
35326;SDS011;21436;52.348;20.928;2023-06-14T07:53:50;15.38;;;11.10;;
35326;SDS011;21436;52.348;20.928;2023-06-14T07:56:18;13.63;;;10.73;;
35326;SDS011;21436;52.348;20.928;2023-06-14T07:58:46;18.13;;;10.52;;
35326;SDS011;21436;52.348;20.928;2023-06-14T08:01:14;22.48;;;11.52;;
35326;SDS011;21436;52.348;20.928;2023-06-14T08:03:42;15.55;;;10.40;;
35326;SDS011;21436;52.348;20.928;2023-06-14T08:06:11;17.98;;;10.00;;
35326;SDS011;21436;52.348;20.928;2023-06-14T08:08:39;14.57;;;9.80;;
35326;SDS011;21436;52.348;20.928;2023-06-14T08:11:08;14.73;;;8.65;;
35326;SDS011;21436;52.348;20.928;2023-06-14T08:13:36;13.10;;;8.25;;
35326;SDS011;21436;52.348;20.928;2023-06-14T08:16:05;14.48;;;9.02;;
35326;SDS011;21436;52.348;20.928;2023-06-14T08:18:33;10.32;;;7.30;;
35326;SDS011;21436;52.348;20.928;2023-06-14T08:21:01;11.25;;;7.20;;
35326;SDS011;21436;52.348;20.928;2023-06-14T08:23:31;13.43;;;8.23;;
35326;SDS011;21436;52.348;20.928;2023-06-14T08:25:59;8.60;;;6.75;;
35326;SDS011;21436;52.348;20.928;2023-06-14T08:28:29;9.25;;;7.07;;
35326;SDS011;21436;52.348;20.928;2023-06-14T08:30:57;11.73;;;7.47;;
35326;SDS011;21436;52.348;20.928;2023-06-14T08:33:25;10.98;;;5.95;;
35326;SDS011;21436;52.348;20.928;2023-06-14T08:35:53;10.50;;;6.22;;
35326;SDS011;21436;52.348;20.928;2023-06-14T08:38:22;13.50;;;5.90;;
35326;SDS011;21436;52.348;20.928;2023-06-14T08:40:50;9.13;;;5.43;;
35326;SDS011;21436;52.348;20.928;2023-06-14T08:43:19;10.80;;;6.40;;
35326;SDS011;21436;52.348;20.928;2023-06-14T08:45:47;9.27;;;5.85;;
35326;SDS011;21436;52.348;20.928;2023-06-14T08:48:17;12.40;;;6.22;;
35326;SDS011;21436;52.348;20.928;2023-06-14T08:50:47;11.43;;;6.43;;
35326;SDS011;21436;52.348;20.928;2023-06-14T08:53:19;8.70;;;6.18;;
35326;SDS011;21436;52.348;20.928;2023-06-14T08:55:49;11.02;;;5.78;;
35326;SDS011;21436;52.348;20.928;2023-06-14T08:58:18;11.32;;;5.82;;
35326;SDS011;21436;52.348;20.928;2023-06-14T09:00:47;8.50;;;5.28;;
35326;SDS011;21436;52.348;20.928;2023-06-14T09:03:16;7.70;;;5.47;;
35326;SDS011;21436;52.348;20.928;2023-06-14T09:05:44;12.05;;;5.90;;
35326;SDS011;21436;52.348;20.928;2023-06-14T09:08:13;8.15;;;5.30;;
35326;SDS011;21436;52.348;20.928;2023-06-14T09:10:42;26.17;;;5.97;;
35326;SDS011;21436;52.348;20.928;2023-06-14T09:13:10;12.27;;;6.03;;
35326;SDS011;21436;52.348;20.928;2023-06-14T09:15:38;8.52;;;5.15;;
35326;SDS011;21436;52.348;20.928;2023-06-14T09:18:06;10.32;;;6.20;;
35326;SDS011;21436;52.348;20.928;2023-06-14T09:20:34;8.27;;;5.15;;
35326;SDS011;21436;52.348;20.928;2023-06-14T09:23:04;7.22;;;4.57;;
35326;SDS011;21436;52.348;20.928;2023-06-14T09:25:42;8.45;;;4.63;;
35326;SDS011;21436;52.348;20.928;2023-06-14T09:28:12;7.20;;;4.97;;
35326;SDS011;21436;52.348;20.928;2023-06-14T09:30:40;11.25;;;4.82;;
35326;SDS011;21436;52.348;20.928;2023-06-14T09:33:09;9.35;;;5.43;;
35326;SDS011;21436;52.348;20.928;2023-06-14T09:35:37;10.77;;;5.60;;
35326;SDS011;21436;52.348;20.928;2023-06-14T09:38:05;7.95;;;5.47;;
35326;SDS011;21436;52.348;20.928;2023-06-14T09:40:34;9.85;;;6.28;;
35326;SDS011;21436;52.348;20.928;2023-06-14T09:43:06;14.70;;;6.50;;
35326;SDS011;21436;52.348;20.928;2023-06-14T09:45:40;10.63;;;6.72;;
35326;SDS011;21436;52.348;20.928;2023-06-14T09:48:13;11.63;;;6.88;;
35326;SDS011;21436;52.348;20.928;2023-06-14T09:50:45;10.57;;;7.35;;
35326;SDS011;21436;52.348;20.928;2023-06-14T09:53:17;9.55;;;6.80;;
35326;SDS011;21436;52.348;20.928;2023-06-14T09:55:49;10.35;;;7.05;;
35326;SDS011;21436;52.348;20.928;2023-06-14T09:58:18;13.43;;;7.28;;
35326;SDS011;21436;52.348;20.928;2023-06-14T10:00:48;11.18;;;7.35;;
35326;SDS011;21436;52.348;20.928;2023-06-14T10:03:21;12.77;;;7.28;;
35326;SDS011;21436;52.348;20.928;2023-06-14T10:05:52;11.32;;;7.70;;
35326;SDS011;21436;52.348;20.928;2023-06-14T10:08:23;11.80;;;7.63;;
35326;SDS011;21436;52.348;20.928;2023-06-14T10:10:55;10.13;;;7.28;;
35326;SDS011;21436;52.348;20.928;2023-06-14T10:13:25;9.88;;;6.97;;
35326;SDS011;21436;52.348;20.928;2023-06-14T10:15:58;11.35;;;6.60;;
35326;SDS011;21436;52.348;20.928;2023-06-14T10:21:32;6.53;;;5.57;;
35326;SDS011;21436;52.348;20.928;2023-06-14T10:24:08;8.93;;;5.53;;
35326;SDS011;21436;52.348;20.928;2023-06-14T10:26:53;11.25;;;5.10;;
35326;SDS011;21436;52.348;20.928;2023-06-14T10:29:25;6.90;;;5.20;;
35326;SDS011;21436;52.348;20.928;2023-06-14T10:32:00;6.15;;;4.78;;
35326;SDS011;21436;52.348;20.928;2023-06-14T10:34:30;8.35;;;4.50;;
35326;SDS011;21436;52.348;20.928;2023-06-14T10:39:40;8.45;;;4.05;;
35326;SDS011;21436;52.348;20.928;2023-06-14T10:42:13;5.80;;;4.30;;
35326;SDS011;21436;52.348;20.928;2023-06-14T10:44:49;8.73;;;3.35;;
35326;SDS011;21436;52.348;20.928;2023-06-14T10:49:49;7.57;;;3.65;;
35326;SDS011;21436;52.348;20.928;2023-06-14T10:52:26;6.88;;;3.53;;
35326;SDS011;21436;52.348;20.928;2023-06-14T10:55:04;8.93;;;4.13;;
35326;SDS011;21436;52.348;20.928;2023-06-14T10:57:47;7.55;;;3.55;;
35326;SDS011;21436;52.348;20.928;2023-06-14T11:00:24;5.22;;;3.67;;
35326;SDS011;21436;52.348;20.928;2023-06-14T11:05:49;8.15;;;4.00;;
35326;SDS011;21436;52.348;20.928;2023-06-14T11:11:33;9.07;;;4.90;;
35326;SDS011;21436;52.348;20.928;2023-06-14T11:14:03;5.97;;;4.70;;
35326;SDS011;21436;52.348;20.928;2023-06-14T11:16:32;7.55;;;4.00;;
35326;SDS011;21436;52.348;20.928;2023-06-14T11:19:01;10.60;;;5.50;;
35326;SDS011;21436;52.348;20.928;2023-06-14T11:21:32;8.60;;;4.57;;
35326;SDS011;21436;52.348;20.928;2023-06-14T11:24:01;5.50;;;3.85;;
35326;SDS011;21436;52.348;20.928;2023-06-14T11:26:30;10.52;;;4.10;;
35326;SDS011;21436;52.348;20.928;2023-06-14T11:29:01;6.53;;;3.65;;
35326;SDS011;21436;52.348;20.928;2023-06-14T11:31:29;4.00;;;3.25;;
35326;SDS011;21436;52.348;20.928;2023-06-14T11:33:59;6.88;;;3.88;;
35326;SDS011;21436;52.348;20.928;2023-06-14T11:36:31;9.05;;;5.22;;
35326;SDS011;21436;52.348;20.928;2023-06-14T11:39:05;8.65;;;4.38;;
35326;SDS011;21436;52.348;20.928;2023-06-14T11:41:41;8.85;;;4.70;;
35326;SDS011;21436;52.348;20.928;2023-06-14T11:44:11;6.75;;;3.85;;
35326;SDS011;21436;52.348;20.928;2023-06-14T11:46:39;10.65;;;4.25;;
35326;SDS011;21436;52.348;20.928;2023-06-14T11:49:08;7.25;;;4.55;;
35326;SDS011;21436;52.348;20.928;2023-06-14T11:51:37;6.57;;;4.43;;
35326;SDS011;21436;52.348;20.928;2023-06-14T11:54:05;6.47;;;4.10;;
35326;SDS011;21436;52.348;20.928;2023-06-14T11:56:36;6.72;;;4.43;;
35326;SDS011;21436;52.348;20.928;2023-06-14T11:59:04;5.63;;;4.28;;
35326;SDS011;21436;52.348;20.928;2023-06-14T12:01:35;5.47;;;4.13;;
35326;SDS011;21436;52.348;20.928;2023-06-14T12:04:06;8.13;;;4.60;;
35326;SDS011;21436;52.348;20.928;2023-06-14T12:06:35;5.30;;;3.75;;
35326;SDS011;21436;52.348;20.928;2023-06-14T12:09:07;11.02;;;4.70;;
35326;SDS011;21436;52.348;20.928;2023-06-14T12:11:41;7.63;;;4.68;;
35326;SDS011;21436;52.348;20.928;2023-06-14T12:14:09;5.78;;;4.15;;
35326;SDS011;21436;52.348;20.928;2023-06-14T12:16:39;5.20;;;4.30;;
35326;SDS011;21436;52.348;20.928;2023-06-14T12:19:16;9.23;;;5.28;;
35326;SDS011;21436;52.348;20.928;2023-06-14T12:21:48;4.03;;;3.55;;
35326;SDS011;21436;52.348;20.928;2023-06-14T12:24:17;7.97;;;4.03;;
35326;SDS011;21436;52.348;20.928;2023-06-14T12:26:47;7.93;;;3.20;;
35326;SDS011;21436;52.348;20.928;2023-06-14T12:29:14;7.18;;;3.95;;
35326;SDS011;21436;52.348;20.928;2023-06-14T12:31:43;6.60;;;3.97;;
35326;SDS011;21436;52.348;20.928;2023-06-14T12:34:11;8.55;;;4.35;;
35326;SDS011;21436;52.348;20.928;2023-06-14T12:36:40;6.65;;;3.83;;
35326;SDS011;21436;52.348;20.928;2023-06-14T12:39:12;6.95;;;3.92;;
35326;SDS011;21436;52.348;20.928;2023-06-14T12:41:41;6.93;;;4.22;;
35326;SDS011;21436;52.348;20.928;2023-06-14T12:44:12;6.78;;;3.80;;
35326;SDS011;21436;52.348;20.928;2023-06-14T12:46:41;6.47;;;4.47;;
35326;SDS011;21436;52.348;20.928;2023-06-14T12:49:11;8.40;;;4.85;;
35326;SDS011;21436;52.348;20.928;2023-06-14T12:51:40;7.55;;;4.95;;
35326;SDS011;21436;52.348;20.928;2023-06-14T12:54:08;8.73;;;4.65;;
35326;SDS011;21436;52.348;20.928;2023-06-14T12:56:36;11.63;;;5.35;;
35326;SDS011;21436;52.348;20.928;2023-06-14T12:59:04;10.57;;;5.35;;
35326;SDS011;21436;52.348;20.928;2023-06-14T13:01:34;8.93;;;4.28;;
35326;SDS011;21436;52.348;20.928;2023-06-14T13:04:04;10.45;;;4.45;;
35326;SDS011;21436;52.348;20.928;2023-06-14T13:06:32;6.95;;;3.85;;
35326;SDS011;21436;52.348;20.928;2023-06-14T13:09:01;6.57;;;4.28;;
35326;SDS011;21436;52.348;20.928;2023-06-14T13:11:29;9.68;;;3.88;;
35326;SDS011;21436;52.348;20.928;2023-06-14T13:13:57;6.70;;;4.30;;
35326;SDS011;21436;52.348;20.928;2023-06-14T13:16:28;10.73;;;4.43;;
35326;SDS011;21436;52.348;20.928;2023-06-14T13:18:56;9.05;;;4.25;;
35326;SDS011;21436;52.348;20.928;2023-06-14T13:21:25;5.78;;;4.13;;
35326;SDS011;21436;52.348;20.928;2023-06-14T13:23:53;5.43;;;4.45;;
35326;SDS011;21436;52.348;20.928;2023-06-14T13:26:21;4.88;;;4.30;;
35326;SDS011;21436;52.348;20.928;2023-06-14T13:28:49;8.75;;;4.63;;
35326;SDS011;21436;52.348;20.928;2023-06-14T13:31:19;6.55;;;4.10;;
35326;SDS011;21436;52.348;20.928;2023-06-14T13:33:47;12.38;;;4.93;;
35326;SDS011;21436;52.348;20.928;2023-06-14T13:36:15;8.63;;;5.10;;
35326;SDS011;21436;52.348;20.928;2023-06-14T13:38:43;5.03;;;4.43;;
35326;SDS011;21436;52.348;20.928;2023-06-14T13:41:15;7.00;;;4.75;;
35326;SDS011;21436;52.348;20.928;2023-06-14T13:43:43;7.28;;;4.80;;
35326;SDS011;21436;52.348;20.928;2023-06-14T13:46:10;7.20;;;4.57;;
35326;SDS011;21436;52.348;20.928;2023-06-14T13:48:38;9.35;;;5.50;;
35326;SDS011;21436;52.348;20.928;2023-06-14T13:51:07;6.13;;;4.90;;
35326;SDS011;21436;52.348;20.928;2023-06-14T13:53:35;5.05;;;4.55;;
35326;SDS011;21436;52.348;20.928;2023-06-14T13:56:03;7.60;;;4.60;;
35326;SDS011;21436;52.348;20.928;2023-06-14T13:58:31;5.72;;;4.15;;
35326;SDS011;21436;52.348;20.928;2023-06-14T14:00:59;6.70;;;4.35;;
35326;SDS011;21436;52.348;20.928;2023-06-14T14:03:29;5.75;;;4.25;;
35326;SDS011;21436;52.348;20.928;2023-06-14T14:06:03;6.90;;;4.57;;
35326;SDS011;21436;52.348;20.928;2023-06-14T14:08:31;4.95;;;4.15;;
35326;SDS011;21436;52.348;20.928;2023-06-14T14:10:59;4.70;;;4.22;;
35326;SDS011;21436;52.348;20.928;2023-06-14T14:13:28;6.60;;;4.53;;
35326;SDS011;21436;52.348;20.928;2023-06-14T14:15:56;5.00;;;4.25;;
35326;SDS011;21436;52.348;20.928;2023-06-14T14:18:24;8.52;;;4.28;;
35326;SDS011;21436;52.348;20.928;2023-06-14T14:20:55;5.45;;;4.20;;
35326;SDS011;21436;52.348;20.928;2023-06-14T14:23:23;5.38;;;3.88;;
35326;SDS011;21436;52.348;20.928;2023-06-14T14:25:51;5.38;;;4.18;;
35326;SDS011;21436;52.348;20.928;2023-06-14T14:28:19;7.00;;;3.75;;
35326;SDS011;21436;52.348;20.928;2023-06-14T14:30:48;5.18;;;4.28;;
35326;SDS011;21436;52.348;20.928;2023-06-14T14:33:16;8.10;;;4.28;;
35326;SDS011;21436;52.348;20.928;2023-06-14T14:35:45;7.45;;;3.95;;
35326;SDS011;21436;52.348;20.928;2023-06-14T14:38:14;5.57;;;3.90;;
35326;SDS011;21436;52.348;20.928;2023-06-14T14:40:45;5.63;;;4.30;;
35326;SDS011;21436;52.348;20.928;2023-06-14T14:43:13;5.15;;;4.18;;
35326;SDS011;21436;52.348;20.928;2023-06-14T14:45:42;7.53;;;4.93;;
35326;SDS011;21436;52.348;20.928;2023-06-14T14:48:10;7.72;;;4.53;;
35326;SDS011;21436;52.348;20.928;2023-06-14T14:50:38;5.30;;;4.07;;
35326;SDS011;21436;52.348;20.928;2023-06-14T14:53:06;7.20;;;4.65;;
35326;SDS011;21436;52.348;20.928;2023-06-14T14:55:35;8.40;;;4.68;;